Terminal Aerodrome Forecast
Issued by NWS Wilmington, OH

Current Version | Previous Version | Graphics & Text | Print | Product List | Glossary On
Versions: 1 2 3 4 5 6 7 8 9 10 11 12 13 14
000
FTUS41 KILN 212341
TAFDAY
TAF
KDAY 212341Z 2200/2224 16006KT P6SM BKN250
     FM221400 17010KT P6SM BKN140
     FM222300 15007KT P6SM BKN100=

USA.gov is the U.S. government's official web portal to all federal, state and local government web resources and services.